createdAt,value
2023-05-11T00:00:36.425Z,28.95
2023-05-11T00:03:03.084Z,28.27
2023-05-11T00:05:29.624Z,29.65
2023-05-11T00:07:56.083Z,28.35
2023-05-11T00:10:22.739Z,30.00
2023-05-11T00:12:49.147Z,28.65
2023-05-11T00:15:15.551Z,30.10
2023-05-11T00:17:41.953Z,28.77
2023-05-11T00:20:08.808Z,28.63
2023-05-11T00:22:35.336Z,29.30
2023-05-11T00:25:01.784Z,29.30
2023-05-11T00:27:28.202Z,28.42
2023-05-11T00:29:54.591Z,29.13
2023-05-11T00:32:21.284Z,29.48
2023-05-11T00:34:47.697Z,29.42
2023-05-11T00:37:14.067Z,27.00
2023-05-11T00:39:40.779Z,28.25
2023-05-11T00:42:07.640Z,28.13
2023-05-11T00:44:34.076Z,30.20
2023-05-11T00:47:00.655Z,29.20
2023-05-11T00:49:27.663Z,29.63
2023-05-11T00:51:54.088Z,30.30
2023-05-11T00:54:20.513Z,29.85
2023-05-11T00:56:48.197Z,30.88
2023-05-11T00:59:14.680Z,30.80
2023-05-11T01:01:41.250Z,30.45
2023-05-11T01:04:07.864Z,30.52
2023-05-11T01:06:44.572Z,31.30
2023-05-11T01:09:21.844Z,31.50
2023-05-11T01:11:56.800Z,31.10
2023-05-11T01:14:42.132Z,32.30
2023-05-11T01:17:13.556Z,33.30
2023-05-11T01:19:57.990Z,32.85
2023-05-11T01:22:54.237Z,32.85
2023-05-11T01:25:29.654Z,31.85
2023-05-11T01:28:14.707Z,31.58
2023-05-11T01:30:49.261Z,32.08
2023-05-11T01:33:16.531Z,32.88
2023-05-11T01:35:53.467Z,31.55
2023-05-11T01:38:21.737Z,31.90
2023-05-11T01:40:53.927Z,32.45
2023-05-11T01:45:51.228Z,31.92
2023-05-11T01:48:21.505Z,33.78
2023-05-11T01:50:48.720Z,31.10
2023-05-11T01:53:15.911Z,31.73
2023-05-11T01:55:43.014Z,32.22
2023-05-11T01:58:10.687Z,32.35
2023-05-11T02:00:37.790Z,32.10
2023-05-11T02:03:06.043Z,32.30
2023-05-11T02:05:34.975Z,32.58
2023-05-11T02:08:03.260Z,34.45
2023-05-11T02:10:30.120Z,31.48
2023-05-11T02:12:56.643Z,31.55
2023-05-11T02:15:24.047Z,33.67
2023-05-11T02:17:51.225Z,32.97
2023-05-11T02:20:18.444Z,32.35
2023-05-11T02:22:45.403Z,33.85
2023-05-11T02:25:12.733Z,33.42
2023-05-11T02:27:39.438Z,31.92
2023-05-11T02:30:08.145Z,36.45
2023-05-11T02:32:36.099Z,36.50
2023-05-11T02:35:08.768Z,36.25
2023-05-11T02:37:39.999Z,37.03
2023-05-11T02:40:12.327Z,35.93
2023-05-11T02:42:40.198Z,37.65
2023-05-11T02:45:08.890Z,36.30
2023-05-11T02:47:46.360Z,37.25
2023-05-11T02:50:13.440Z,35.55
2023-05-11T02:52:44.750Z,35.10
2023-05-11T02:55:11.917Z,34.27
2023-05-11T02:57:39.000Z,35.88
2023-05-11T03:00:06.553Z,34.03
2023-05-11T03:02:33.092Z,35.47
2023-05-11T03:04:59.583Z,35.00
2023-05-11T03:07:26.086Z,35.13
2023-05-11T03:09:52.836Z,36.40
2023-05-11T03:12:20.553Z,35.05
2023-05-11T03:14:47.857Z,36.13
2023-05-11T03:17:14.967Z,35.28
2023-05-11T03:19:41.933Z,36.58
2023-05-11T03:22:09.684Z,35.55
2023-05-11T03:24:36.398Z,35.58
2023-05-11T03:27:04.054Z,36.50
2023-05-11T03:29:31.830Z,35.17
2023-05-11T03:31:58.318Z,34.25
2023-05-11T03:34:24.827Z,34.97
2023-05-11T03:36:52.655Z,35.40
2023-05-11T03:39:20.204Z,35.17
2023-05-11T03:41:49.572Z,36.22
2023-05-11T03:44:19.543Z,36.33
2023-05-11T03:46:46.222Z,34.95
2023-05-11T03:49:13.679Z,36.08
2023-05-11T03:51:41.304Z,36.97
2023-05-11T03:54:08.067Z,37.47
2023-05-11T03:56:41.011Z,38.88
2023-05-11T03:59:09.220Z,41.33
2023-05-11T04:01:35.608Z,41.97
2023-05-11T04:04:02.081Z,43.42
2023-05-11T04:06:28.539Z,45.88
2023-05-11T04:08:54.905Z,46.13
2023-05-11T04:11:22.103Z,47.38
2023-05-11T04:13:48.500Z,48.30
2023-05-11T04:16:14.958Z,46.35
2023-05-11T04:18:41.430Z,45.60
2023-05-11T04:21:07.831Z,44.55
2023-05-11T04:23:34.270Z,45.83
2023-05-11T04:26:00.717Z,46.05
2023-05-11T04:28:27.942Z,42.67
2023-05-11T04:30:55.564Z,45.17
2023-05-11T04:33:22.338Z,46.33
2023-05-11T04:35:52.942Z,45.20
2023-05-11T04:38:19.766Z,44.38
2023-05-11T04:40:47.753Z,43.60
2023-05-11T04:43:14.910Z,42.50
2023-05-11T04:45:41.435Z,38.97
2023-05-11T04:48:07.995Z,38.03
2023-05-11T04:50:34.386Z,40.03
2023-05-11T04:53:00.781Z,39.38
2023-05-11T04:55:27.144Z,41.75
2023-05-11T04:57:53.520Z,42.03
2023-05-11T05:00:20.852Z,44.05
2023-05-11T05:02:47.602Z,42.92
2023-05-11T05:05:14.018Z,43.50
2023-05-11T05:07:40.406Z,43.67
2023-05-11T05:10:08.866Z,43.47
2023-05-11T05:12:36.603Z,42.13
2023-05-11T05:15:03.875Z,43.28
2023-05-11T05:17:30.225Z,45.13
2023-05-11T05:19:57.914Z,41.75
2023-05-11T05:22:25.156Z,42.00
2023-05-11T05:24:51.594Z,42.13
2023-05-11T05:27:18.146Z,41.60
2023-05-11T05:29:44.542Z,41.90
2023-05-11T05:32:10.879Z,41.05
2023-05-11T05:34:37.254Z,41.15
2023-05-11T05:37:04.141Z,38.97
2023-05-11T05:39:30.684Z,39.80
2023-05-11T05:41:57.089Z,43.15
2023-05-11T05:44:23.504Z,40.85
2023-05-11T05:46:49.863Z,41.38
2023-05-11T05:49:16.380Z,42.97
2023-05-11T05:51:42.753Z,43.70
2023-05-11T05:54:09.179Z,42.38
2023-05-11T05:56:35.546Z,42.75
2023-05-11T05:59:01.950Z,39.58
2023-05-11T06:01:28.313Z,37.63
2023-05-11T06:03:55.756Z,36.58
2023-05-11T06:06:22.284Z,35.65
2023-05-11T06:08:48.624Z,36.97
2023-05-11T06:11:15.909Z,35.15
2023-05-11T06:13:42.300Z,32.92
2023-05-11T06:16:08.736Z,32.95
2023-05-11T06:18:36.068Z,32.70
2023-05-11T06:21:02.484Z,31.90
2023-05-11T06:23:28.921Z,31.63
2023-05-11T06:25:55.376Z,34.25
2023-05-11T06:28:24.340Z,29.50
2023-05-11T06:30:50.775Z,27.42
2023-05-11T06:33:17.144Z,26.92
2023-05-11T06:35:43.649Z,23.08
2023-05-11T06:38:10.002Z,21.42
2023-05-11T06:40:36.402Z,22.27
2023-05-11T06:43:02.812Z,23.45
2023-05-11T06:45:29.349Z,23.02
2023-05-11T06:47:55.975Z,19.77
2023-05-11T06:50:23.418Z,20.38
2023-05-11T06:52:51.525Z,19.85
2023-05-11T06:55:17.919Z,19.20
2023-05-11T06:57:44.301Z,19.02
2023-05-11T07:00:10.986Z,17.23
2023-05-11T07:02:37.468Z,14.93
2023-05-11T07:05:04.144Z,16.25
2023-05-11T07:07:30.648Z,16.02
2023-05-11T07:09:57.549Z,17.52
2023-05-11T07:12:24.801Z,21.25
2023-05-11T07:14:51.169Z,21.80
2023-05-11T07:17:17.615Z,16.23
2023-05-11T07:19:44.313Z,17.88
2023-05-11T07:22:11.497Z,20.48
2023-05-11T07:24:39.208Z,17.88
2023-05-11T07:27:05.654Z,16.98
2023-05-11T07:29:32.012Z,18.08
2023-05-11T07:31:58.428Z,17.58
2023-05-11T07:34:24.904Z,16.13
2023-05-11T07:36:51.374Z,17.90
2023-05-11T07:39:17.850Z,18.83
2023-05-11T07:41:44.233Z,16.23
2023-05-11T07:44:11.226Z,16.15
2023-05-11T07:46:37.763Z,16.02
2023-05-11T07:49:15.770Z,15.55
2023-05-11T07:51:47.052Z,16.77
2023-05-11T07:54:13.635Z,16.73
2023-05-11T07:56:40.065Z,14.02
2023-05-11T07:59:06.439Z,14.10
2023-05-11T08:01:33.350Z,15.77
2023-05-11T08:04:00.264Z,16.25
2023-05-11T08:06:26.633Z,15.18
2023-05-11T08:08:53.029Z,17.88
2023-05-11T08:11:19.417Z,16.52
2023-05-11T08:13:45.829Z,15.68
2023-05-11T08:16:12.403Z,16.08
2023-05-11T08:18:38.917Z,16.20
2023-05-11T08:21:05.598Z,13.68
2023-05-11T08:23:31.965Z,15.82
2023-05-11T08:25:58.370Z,16.40
2023-05-11T08:28:24.754Z,15.25
2023-05-11T08:30:58.125Z,15.93
2023-05-11T08:35:54.337Z,14.95
2023-05-11T08:38:20.693Z,13.63
2023-05-11T08:40:48.529Z,14.68
2023-05-11T08:43:18.398Z,16.08
2023-05-11T08:45:48.281Z,30.67
2023-05-11T08:48:17.617Z,17.42
2023-05-11T08:50:45.501Z,27.88
2023-05-11T08:53:12.284Z,28.80
2023-05-11T08:55:40.466Z,22.33
2023-05-11T08:58:07.134Z,22.73
2023-05-11T09:00:34.282Z,23.85
2023-05-11T09:03:01.008Z,23.02
2023-05-11T09:05:28.023Z,23.48
2023-05-11T09:07:57.666Z,24.17
2023-05-11T09:10:24.161Z,27.77
2023-05-11T09:12:50.563Z,26.83
2023-05-11T09:15:16.958Z,27.70
2023-05-11T09:17:43.357Z,25.23
2023-05-11T09:20:10.248Z,26.10
2023-05-11T09:22:46.636Z,23.58
2023-05-11T09:25:14.576Z,23.00
2023-05-11T09:27:44.675Z,23.35
2023-05-11T09:30:22.076Z,22.40
2023-05-11T09:32:55.641Z,23.52
2023-05-11T09:35:29.770Z,25.63
2023-05-11T09:38:05.486Z,23.48
2023-05-11T09:40:34.561Z,21.50
2023-05-11T09:43:03.275Z,22.45
2023-05-11T09:45:39.507Z,20.33
2023-05-11T09:48:07.379Z,18.92
2023-05-11T09:50:35.022Z,18.58
2023-05-11T09:53:01.556Z,17.17
2023-05-11T09:55:27.974Z,19.42
2023-05-11T09:57:59.069Z,17.45
2023-05-11T10:00:25.625Z,18.40
2023-05-11T10:03:05.645Z,19.15
2023-05-11T10:05:33.703Z,17.00
2023-05-11T10:08:02.224Z,19.45
2023-05-11T10:10:29.792Z,16.13
2023-05-11T10:12:59.157Z,18.95
2023-05-11T10:15:28.209Z,17.27
2023-05-11T10:17:56.540Z,18.05
2023-05-11T10:20:23.053Z,17.35
2023-05-11T10:22:52.441Z,18.02
2023-05-11T10:25:21.441Z,19.80
2023-05-11T10:27:48.110Z,18.60
2023-05-11T10:30:14.827Z,17.33
2023-05-11T10:32:41.540Z,16.95
2023-05-11T10:35:08.771Z,16.45
2023-05-11T10:37:35.443Z,16.80
2023-05-11T10:40:01.965Z,15.57
2023-05-11T10:43:02.258Z,16.73
2023-05-11T10:45:28.615Z,15.70
2023-05-11T10:48:25.974Z,15.65
2023-05-11T10:51:11.175Z,14.32
2023-05-11T10:53:37.564Z,13.95
2023-05-11T10:56:24.212Z,13.50
2023-05-11T10:59:24.957Z,14.32
2023-05-11T11:01:52.369Z,13.38
2023-05-11T11:04:20.421Z,11.40
2023-05-11T11:06:46.963Z,10.52
2023-05-11T11:09:15.485Z,13.13
2023-05-11T11:11:46.360Z,13.15
2023-05-11T11:14:14.617Z,12.40
2023-05-11T11:16:43.629Z,13.05
2023-05-11T11:19:29.505Z,11.70
2023-05-11T11:21:56.903Z,12.75
2023-05-11T11:24:38.489Z,12.05
2023-05-11T11:27:06.086Z,13.13
2023-05-11T11:29:34.554Z,13.85
2023-05-11T11:32:19.434Z,14.30
2023-05-11T11:34:47.077Z,13.25
2023-05-11T11:37:14.953Z,14.02
2023-05-11T11:39:41.244Z,12.85
2023-05-11T11:42:19.072Z,12.88
2023-05-11T11:44:45.949Z,10.95
2023-05-11T11:47:20.680Z,11.07
2023-05-11T11:49:51.512Z,12.35
2023-05-11T11:52:38.128Z,12.65
2023-05-11T11:55:05.109Z,12.80
2023-05-11T11:57:34.314Z,13.20
2023-05-11T12:00:06.582Z,14.32
2023-05-11T12:02:34.637Z,14.52
2023-05-11T12:05:02.384Z,14.18
2023-05-11T12:07:33.267Z,12.85
2023-05-11T12:10:03.847Z,13.82
2023-05-11T12:12:30.493Z,14.75
2023-05-11T12:14:57.728Z,12.18
2023-05-11T12:17:29.404Z,11.82
2023-05-11T12:20:11.989Z,12.00
2023-05-11T12:22:38.368Z,12.18
2023-05-11T12:25:08.409Z,13.43
2023-05-11T12:27:34.832Z,12.95
2023-05-11T12:30:01.205Z,10.55
2023-05-11T12:32:31.379Z,10.18
2023-05-11T12:35:02.833Z,9.65
2023-05-11T12:37:30.309Z,9.07
2023-05-11T12:39:57.479Z,8.63
2023-05-11T12:42:23.988Z,9.70
2023-05-11T12:44:51.008Z,9.35
2023-05-11T12:47:17.683Z,9.93
2023-05-11T12:49:45.655Z,8.93
2023-05-11T12:52:13.375Z,7.05
2023-05-11T12:54:47.757Z,6.65
2023-05-11T12:57:28.781Z,6.97
2023-05-11T13:00:15.697Z,6.47
2023-05-11T13:02:52.241Z,5.68
2023-05-11T13:05:23.307Z,5.20
2023-05-11T13:07:58.589Z,5.78
2023-05-11T13:10:26.706Z,5.95
2023-05-11T13:12:54.171Z,6.05
2023-05-11T13:15:22.535Z,7.20
2023-05-11T13:17:55.976Z,7.88
2023-05-11T13:20:30.803Z,8.10
2023-05-11T13:23:03.265Z,9.68
2023-05-11T13:25:29.642Z,9.88
2023-05-11T13:27:56.014Z,9.40
2023-05-11T13:30:22.510Z,9.90
2023-05-11T13:32:48.928Z,9.05
2023-05-11T13:35:15.544Z,9.23
2023-05-11T13:37:41.901Z,9.40
2023-05-11T13:40:10.392Z,9.43
2023-05-11T13:42:37.396Z,8.90
2023-05-11T13:45:04.150Z,9.32
2023-05-11T13:47:31.073Z,8.98
2023-05-11T13:49:57.474Z,10.68
2023-05-11T13:52:23.850Z,9.27
2023-05-11T13:54:50.326Z,9.20
2023-05-11T13:57:16.871Z,9.57
2023-05-11T13:59:43.266Z,8.80
2023-05-11T14:02:10.043Z,8.05
2023-05-11T14:04:36.609Z,7.45
2023-05-11T14:07:03.061Z,7.53
2023-05-11T14:09:30.700Z,7.47
2023-05-11T14:11:59.017Z,7.72
2023-05-11T14:14:25.402Z,7.32
2023-05-11T14:16:51.803Z,6.82
2023-05-11T14:19:18.244Z,6.43
2023-05-11T14:21:44.916Z,6.03
2023-05-11T14:24:12.776Z,7.00
2023-05-11T14:26:40.033Z,5.88
2023-05-11T14:29:06.909Z,6.47
2023-05-11T14:31:35.026Z,5.75
2023-05-11T14:34:02.840Z,5.70
2023-05-11T14:36:29.236Z,6.68
2023-05-11T14:38:55.794Z,6.65
2023-05-11T14:41:22.165Z,6.38
2023-05-11T14:43:49.293Z,6.68
2023-05-11T14:46:16.473Z,5.45
2023-05-11T14:48:43.307Z,5.85
2023-05-11T14:51:09.696Z,6.05
2023-05-11T14:53:36.171Z,6.50
2023-05-11T14:56:02.613Z,6.63
2023-05-11T14:58:29.319Z,6.35
2023-05-11T15:00:55.771Z,6.15
2023-05-11T15:03:22.550Z,6.30
2023-05-11T15:05:49.046Z,7.70
2023-05-11T15:08:28.413Z,7.93
2023-05-11T15:10:55.805Z,7.85
2023-05-11T15:13:22.553Z,8.45
2023-05-11T15:15:49.008Z,8.60
2023-05-11T15:18:16.513Z,9.13
2023-05-11T15:20:43.832Z,9.13
2023-05-11T15:23:11.754Z,9.23
2023-05-11T15:25:38.288Z,9.00
2023-05-11T15:28:04.722Z,8.88
2023-05-11T15:30:32.756Z,9.52
2023-05-11T15:32:59.460Z,9.40
2023-05-11T15:35:25.908Z,9.75
2023-05-11T15:37:52.350Z,8.95
2023-05-11T15:40:18.753Z,8.18
2023-05-11T15:42:45.122Z,9.50
2023-05-11T15:45:11.798Z,8.43
2023-05-11T15:47:38.233Z,9.02
2023-05-11T15:50:05.991Z,9.85
2023-05-11T15:52:32.387Z,8.95
2023-05-11T15:54:58.797Z,9.32
2023-05-11T15:57:25.210Z,8.93
2023-05-11T15:59:51.653Z,9.80
2023-05-11T16:02:18.089Z,9.75
2023-05-11T16:04:44.543Z,10.20
2023-05-11T16:07:10.961Z,10.23
2023-05-11T16:09:37.349Z,9.40
2023-05-11T16:12:03.893Z,10.18
2023-05-11T16:14:30.494Z,10.27
2023-05-11T16:16:57.014Z,10.27
2023-05-11T16:19:23.420Z,10.15
2023-05-11T16:21:49.852Z,10.30
2023-05-11T16:24:16.227Z,10.95
2023-05-11T16:26:42.742Z,10.68
2023-05-11T16:29:09.112Z,10.43
2023-05-11T16:31:35.991Z,11.73
2023-05-11T16:34:03.184Z,12.07
2023-05-11T16:36:30.303Z,11.70
2023-05-11T16:38:56.682Z,11.30
2023-05-11T16:41:25.274Z,11.18
2023-05-11T16:43:51.710Z,10.88
2023-05-11T16:46:18.112Z,10.85
2023-05-11T16:48:44.540Z,12.40
2023-05-11T16:51:10.959Z,11.27
2023-05-11T16:53:37.917Z,11.13
2023-05-11T16:56:04.657Z,11.40
2023-05-11T16:58:31.051Z,11.90
2023-05-11T17:00:58.993Z,12.27
2023-05-11T17:03:26.104Z,11.50
2023-05-11T17:05:52.902Z,10.15
2023-05-11T17:08:19.282Z,9.65
2023-05-11T17:10:46.132Z,9.52
2023-05-11T17:13:12.580Z,8.57
2023-05-11T17:15:39.001Z,8.65
2023-05-11T17:18:05.481Z,8.00
2023-05-11T17:20:32.381Z,8.00
2023-05-11T17:22:59.084Z,8.45
2023-05-11T17:25:25.581Z,7.40
2023-05-11T17:27:51.953Z,10.55
2023-05-11T17:30:18.655Z,9.50
2023-05-11T17:32:45.600Z,8.98
2023-05-11T17:35:12.527Z,10.98
2023-05-11T17:37:39.535Z,10.32
2023-05-11T17:40:07.334Z,9.18
2023-05-11T17:42:34.721Z,8.82
2023-05-11T17:45:01.204Z,8.95
2023-05-11T17:47:27.664Z,9.50
2023-05-11T17:49:54.162Z,9.57
2023-05-11T17:52:20.622Z,10.07
2023-05-11T17:54:47.359Z,9.23
2023-05-11T17:57:13.742Z,9.52
2023-05-11T17:59:40.113Z,10.32
2023-05-11T18:02:07.433Z,10.60
2023-05-11T18:04:33.859Z,10.35
2023-05-11T18:07:00.285Z,11.05
2023-05-11T18:09:26.684Z,11.10
2023-05-11T18:11:53.146Z,11.23
2023-05-11T18:14:19.529Z,11.25
2023-05-11T18:16:49.112Z,10.52
2023-05-11T18:19:15.557Z,11.70
2023-05-11T18:21:42.440Z,11.52
2023-05-11T18:24:09.581Z,11.20
2023-05-11T18:26:36.585Z,10.85
2023-05-11T18:29:02.961Z,10.52
2023-05-11T18:31:29.348Z,8.15
2023-05-11T18:33:56.750Z,10.27
2023-05-11T18:36:23.381Z,19.95
2023-05-11T18:38:49.863Z,17.02
2023-05-11T18:41:16.299Z,13.25
2023-05-11T18:43:44.114Z,15.20
2023-05-11T18:46:10.582Z,11.20
2023-05-11T18:48:37.274Z,10.63
2023-05-11T18:51:03.677Z,12.10
2023-05-11T18:53:30.156Z,11.63
2023-05-11T18:55:56.513Z,11.82
2023-05-11T18:58:23.522Z,9.88
2023-05-11T19:00:51.064Z,10.70
2023-05-11T19:03:18.947Z,10.55
2023-05-11T19:05:45.429Z,10.40
2023-05-11T19:08:12.281Z,10.85
2023-05-11T19:10:40.287Z,10.70
2023-05-11T19:13:07.542Z,11.20
2023-05-11T19:15:34.099Z,10.57
2023-05-11T19:18:00.504Z,11.63
2023-05-11T19:20:26.984Z,10.75
2023-05-11T19:22:53.355Z,11.80
2023-05-11T19:25:19.727Z,12.27
2023-05-11T19:27:46.361Z,12.02
2023-05-11T19:30:13.003Z,11.38
2023-05-11T19:32:39.426Z,11.45
2023-05-11T19:35:06.489Z,13.02
2023-05-11T19:37:33.969Z,12.82
2023-05-11T19:40:19.320Z,11.32
2023-05-11T19:42:46.730Z,13.20
2023-05-11T19:45:14.911Z,12.98
2023-05-11T19:47:41.449Z,13.13
2023-05-11T19:50:09.146Z,13.88
2023-05-11T19:52:36.523Z,17.42
2023-05-11T19:55:06.491Z,15.23
2023-05-11T19:57:37.033Z,17.85
2023-05-11T20:00:05.264Z,15.95
2023-05-11T20:02:32.343Z,17.00
2023-05-11T20:04:59.525Z,16.30
2023-05-11T20:07:27.403Z,17.25
2023-05-11T20:09:54.289Z,17.83
2023-05-11T20:12:20.755Z,16.95
2023-05-11T20:14:47.122Z,17.83
2023-05-11T20:17:13.525Z,17.70
2023-05-11T20:19:40.003Z,18.02
2023-05-11T20:22:06.479Z,17.42
2023-05-11T20:24:33.337Z,17.73
2023-05-11T20:27:01.023Z,18.40
2023-05-11T20:29:27.394Z,19.52
2023-05-11T20:31:53.887Z,18.33
2023-05-11T20:34:20.374Z,18.52
2023-05-11T20:36:48.679Z,18.65
2023-05-11T20:39:16.559Z,18.10
2023-05-11T20:41:42.945Z,19.38
2023-05-11T20:44:13.581Z,20.10
2023-05-11T20:46:40.923Z,19.75
2023-05-11T20:49:07.323Z,20.08
2023-05-11T20:51:35.060Z,21.98
2023-05-11T20:54:01.509Z,23.33
2023-05-11T20:56:27.888Z,21.80
2023-05-11T20:58:55.154Z,23.25
2023-05-11T21:01:22.501Z,22.30
2023-05-11T21:03:48.904Z,23.63
2023-05-11T21:06:15.873Z,24.13
2023-05-11T21:08:42.256Z,25.85
2023-05-11T21:11:08.944Z,24.33
2023-05-11T21:13:36.121Z,24.33
2023-05-11T21:16:02.794Z,26.55
2023-05-11T21:18:32.016Z,26.13
2023-05-11T21:20:59.010Z,24.20
2023-05-11T21:23:25.385Z,25.05
2023-05-11T21:25:53.245Z,26.48
2023-05-11T21:28:19.649Z,26.45
2023-05-11T21:30:46.247Z,26.48
2023-05-11T21:33:14.502Z,26.25
2023-05-11T21:35:40.902Z,25.13
2023-05-11T21:38:07.292Z,25.20
2023-05-11T21:40:33.684Z,25.80
2023-05-11T21:43:00.145Z,24.08
2023-05-11T21:45:26.644Z,24.05
2023-05-11T21:47:53.091Z,26.05
2023-05-11T21:50:19.789Z,25.42
2023-05-11T21:52:46.300Z,22.45
2023-05-11T21:55:12.743Z,21.70
2023-05-11T21:57:39.113Z,22.08
2023-05-11T22:00:08.520Z,22.73
2023-05-11T22:02:35.198Z,22.05
2023-05-11T22:05:01.926Z,20.42
2023-05-11T22:07:28.312Z,21.40
2023-05-11T22:09:54.700Z,20.95
2023-05-11T22:12:21.150Z,22.73
2023-05-11T22:14:47.567Z,20.77
2023-05-11T22:17:13.937Z,21.02
2023-05-11T22:19:40.325Z,19.30
2023-05-11T22:22:06.719Z,19.33
2023-05-11T22:24:33.174Z,18.00
2023-05-11T22:26:59.616Z,19.23
2023-05-11T22:29:25.982Z,19.23
2023-05-11T22:31:52.399Z,21.45
2023-05-11T22:34:21.840Z,19.95
2023-05-11T22:36:48.289Z,22.48
2023-05-11T22:39:14.681Z,22.60
2023-05-11T22:41:41.081Z,23.33
2023-05-11T22:44:08.337Z,24.33
2023-05-11T22:46:34.725Z,23.95
2023-05-11T22:49:01.105Z,24.08
2023-05-11T22:51:28.117Z,24.90
2023-05-11T22:53:54.908Z,25.55
2023-05-11T22:56:21.282Z,26.90
2023-05-11T22:58:47.694Z,27.50
2023-05-11T23:01:14.188Z,27.92
2023-05-11T23:03:40.694Z,30.33
2023-05-11T23:06:07.105Z,31.05
2023-05-11T23:08:33.476Z,32.63
2023-05-11T23:10:59.901Z,30.23
2023-05-11T23:13:26.285Z,32.25
2023-05-11T23:15:52.693Z,31.10
2023-05-11T23:18:19.165Z,31.67
2023-05-11T23:20:45.573Z,33.00
2023-05-11T23:23:12.081Z,33.40
2023-05-11T23:25:38.509Z,32.78
2023-05-11T23:28:11.218Z,34.53
2023-05-11T23:30:38.078Z,35.22
2023-05-11T23:33:04.536Z,32.53
2023-05-11T23:35:31.108Z,33.75
2023-05-11T23:37:57.494Z,34.65
2023-05-11T23:40:25.978Z,33.35
2023-05-11T23:42:52.655Z,34.85
2023-05-11T23:45:19.022Z,33.03
2023-05-11T23:47:45.587Z,37.38
2023-05-11T23:50:13.390Z,37.25
2023-05-11T23:52:39.764Z,36.30
2023-05-11T23:55:07.583Z,35.72
2023-05-11T23:57:34.155Z,35.90
